sensor_id;sensor_type;location;lat;lon;timestamp;pressure;altitude;pressure_sealevel;temperature;humidity
38530;BME280;24301;54.332;48.386;2022-09-29T00:00:32;98121.81;;;9.81;100.00
38530;BME280;24301;54.332;48.386;2022-09-29T00:03:00;98127.88;;;9.83;100.00
38530;BME280;24301;54.332;48.386;2022-09-29T00:05:26;98117.38;;;9.83;100.00
38530;BME280;24301;54.332;48.386;2022-09-29T00:07:51;98129.59;;;9.84;100.00
38530;BME280;24301;54.332;48.386;2022-09-29T00:10:17;98121.72;;;9.85;100.00
38530;BME280;24301;54.332;48.386;2022-09-29T00:12:44;98137.41;;;9.87;100.00
38530;BME280;24301;54.332;48.386;2022-09-29T00:15:10;98135.66;;;9.87;100.00
38530;BME280;24301;54.332;48.386;2022-09-29T00:17:36;98128.69;;;9.86;100.00
38530;BME280;24301;54.332;48.386;2022-09-29T00:20:02;98138.31;;;9.86;100.00
38530;BME280;24301;54.332;48.386;2022-09-29T00:22:29;98128.72;;;9.83;100.00
38530;BME280;24301;54.332;48.386;2022-09-29T00:24:55;98129.53;;;9.87;100.00
38530;BME280;24301;54.332;48.386;2022-09-29T00:27:20;98122.38;;;9.92;100.00
38530;BME280;24301;54.332;48.386;2022-09-29T00:29:46;98125.88;;;9.92;100.00
38530;BME280;24301;54.332;48.386;2022-09-29T00:32:12;98108.28;;;9.96;100.00
38530;BME280;24301;54.332;48.386;2022-09-29T00:34:38;98112.63;;;9.97;100.00
38530;BME280;24301;54.332;48.386;2022-09-29T00:37:04;98129.06;;;10.05;100.00
38530;BME280;24301;54.332;48.386;2022-09-29T00:39:31;98107.91;;;10.10;100.00
38530;BME280;24301;54.332;48.386;2022-09-29T00:41:57;98110.53;;;10.10;100.00
38530;BME280;24301;54.332;48.386;2022-09-29T00:47:15;98131.88;;;10.31;100.00
38530;BME280;24301;54.332;48.386;2022-09-29T00:49:53;98130.03;;;10.36;100.00
38530;BME280;24301;54.332;48.386;2022-09-29T00:52:31;98131.59;;;10.43;100.00
38530;BME280;24301;54.332;48.386;2022-09-29T00:55:06;98117.66;;;10.41;100.00
38530;BME280;24301;54.332;48.386;2022-09-29T00:57:38;98123.91;;;10.35;100.00
38530;BME280;24301;54.332;48.386;2022-09-29T01:00:10;98115.13;;;10.37;100.00
38530;BME280;24301;54.332;48.386;2022-09-29T01:02:44;98125.78;;;10.30;100.00
38530;BME280;24301;54.332;48.386;2022-09-29T01:05:20;98127.69;;;10.25;100.00
38530;BME280;24301;54.332;48.386;2022-09-29T01:07:48;98119.22;;;10.14;100.00
38530;BME280;24301;54.332;48.386;2022-09-29T01:10:16;98135.94;;;10.10;100.00
38530;BME280;24301;54.332;48.386;2022-09-29T01:12:44;98125.63;;;10.03;100.00
38530;BME280;24301;54.332;48.386;2022-09-29T01:15:12;98105.53;;;10.01;100.00
38530;BME280;24301;54.332;48.386;2022-09-29T01:17:38;98129.22;;;9.99;100.00
38530;BME280;24301;54.332;48.386;2022-09-29T01:20:14;98117.00;;;9.98;100.00
38530;BME280;24301;54.332;48.386;2022-09-29T01:28:34;98119.81;;;9.90;100.00
38530;BME280;24301;54.332;48.386;2022-09-29T01:34:00;98113.69;;;9.90;100.00
38530;BME280;24301;54.332;48.386;2022-09-29T01:41:56;98125.41;;;9.76;100.00
38530;BME280;24301;54.332;48.386;2022-09-29T01:44:32;98126.31;;;9.75;100.00
38530;BME280;24301;54.332;48.386;2022-09-29T01:49:33;98112.38;;;9.73;100.00
38530;BME280;24301;54.332;48.386;2022-09-29T01:52:05;98116.66;;;9.76;100.00
38530;BME280;24301;54.332;48.386;2022-09-29T01:57:36;98112.28;;;9.76;100.00
38530;BME280;24301;54.332;48.386;2022-09-29T02:00:06;98109.69;;;9.75;100.00
38530;BME280;24301;54.332;48.386;2022-09-29T02:05:40;98119.34;;;9.74;100.00
38530;BME280;24301;54.332;48.386;2022-09-29T02:08:14;98115.81;;;9.75;100.00
38530;BME280;24301;54.332;48.386;2022-09-29T02:10:49;98121.00;;;9.77;100.00
38530;BME280;24301;54.332;48.386;2022-09-29T02:13:19;98109.59;;;9.80;100.00
38530;BME280;24301;54.332;48.386;2022-09-29T02:15:49;98120.03;;;9.81;100.00
38530;BME280;24301;54.332;48.386;2022-09-29T02:18:21;98109.69;;;9.75;100.00
38530;BME280;24301;54.332;48.386;2022-09-29T02:20:48;98109.69;;;9.75;100.00
38530;BME280;24301;54.332;48.386;2022-09-29T02:23:15;98119.38;;;9.71;100.00
38530;BME280;24301;54.332;48.386;2022-09-29T02:25:42;98119.38;;;9.71;100.00
38530;BME280;24301;54.332;48.386;2022-09-29T02:28:09;98114.16;;;9.71;100.00
38530;BME280;24301;54.332;48.386;2022-09-29T02:30:35;98121.19;;;9.69;100.00
38530;BME280;24301;54.332;48.386;2022-09-29T02:33:01;98129.97;;;9.68;100.00
38530;BME280;24301;54.332;48.386;2022-09-29T02:35:36;98112.56;;;9.66;100.00
38530;BME280;24301;54.332;48.386;2022-09-29T02:38:12;98109.03;;;9.67;100.00
38530;BME280;24301;54.332;48.386;2022-09-29T02:41:06;98100.41;;;9.61;100.00
38530;BME280;24301;54.332;48.386;2022-09-29T02:46:49;98124.94;;;9.59;100.00
38530;BME280;24301;54.332;48.386;2022-09-29T02:49:31;98116.25;;;9.57;100.00
38530;BME280;24301;54.332;48.386;2022-09-29T02:52:04;98119.88;;;9.53;100.00
38530;BME280;24301;54.332;48.386;2022-09-29T02:54:46;98146.88;;;9.56;100.00
38530;BME280;24301;54.332;48.386;2022-09-29T03:00:10;98120.63;;;9.56;100.00
38530;BME280;24301;54.332;48.386;2022-09-29T03:02:37;98124.06;;;9.58;100.00
38530;BME280;24301;54.332;48.386;2022-09-29T03:05:05;98127.59;;;9.57;100.00
38530;BME280;24301;54.332;48.386;2022-09-29T03:07:33;98146.88;;;9.56;100.00
38530;BME280;24301;54.332;48.386;2022-09-29T03:10:00;98119.78;;;9.56;100.00
38530;BME280;24301;54.332;48.386;2022-09-29T03:12:25;98134.63;;;9.57;100.00
38530;BME280;24301;54.332;48.386;2022-09-29T03:14:51;98124.94;;;9.59;100.00
38530;BME280;24301;54.332;48.386;2022-09-29T03:17:17;98124.03;;;9.61;100.00
38530;BME280;24301;54.332;48.386;2022-09-29T03:19:43;98127.47;;;9.63;100.00
38530;BME280;24301;54.332;48.386;2022-09-29T03:22:09;98130.94;;;9.66;100.00
38530;BME280;24301;54.332;48.386;2022-09-29T03:24:35;98125.69;;;9.66;100.00
38530;BME280;24301;54.332;48.386;2022-09-29T03:27:01;98126.53;;;9.66;100.00
38530;BME280;24301;54.332;48.386;2022-09-29T03:29:27;98136.03;;;9.70;100.00
38530;BME280;24301;54.332;48.386;2022-09-29T03:31:53;98124.63;;;9.71;100.00
38530;BME280;24301;54.332;48.386;2022-09-29T03:34:18;98118.47;;;9.74;100.00
38530;BME280;24301;54.332;48.386;2022-09-29T03:36:44;98128.13;;;9.73;100.00
38530;BME280;24301;54.332;48.386;2022-09-29T03:39:10;98129.84;;;9.74;100.00
38530;BME280;24301;54.332;48.386;2022-09-29T03:41:36;98131.56;;;9.75;100.00
38530;BME280;24301;54.332;48.386;2022-09-29T03:44:02;98115.84;;;9.74;100.00
38530;BME280;24301;54.332;48.386;2022-09-29T03:46:28;98126.31;;;9.75;100.00
38530;BME280;24301;54.332;48.386;2022-09-29T03:48:54;98126.25;;;9.77;100.00
38530;BME280;24301;54.332;48.386;2022-09-29T03:51:20;98124.59;;;9.74;100.00
38530;BME280;24301;54.332;48.386;2022-09-29T03:53:46;98132.47;;;9.74;100.00
38530;BME280;24301;54.332;48.386;2022-09-29T03:56:11;98136.72;;;9.78;100.00
38530;BME280;24301;54.332;48.386;2022-09-29T03:58:37;98128.03;;;9.76;100.00
38530;BME280;24301;54.332;48.386;2022-09-29T04:01:03;98123.53;;;9.82;100.00
38530;BME280;24301;54.332;48.386;2022-09-29T04:03:29;98120.94;;;9.80;100.00
38530;BME280;24301;54.332;48.386;2022-09-29T04:05:55;98133.13;;;9.83;100.00
38530;BME280;24301;54.332;48.386;2022-09-29T04:08:21;98125.19;;;9.84;100.00
38530;BME280;24301;54.332;48.386;2022-09-29T04:10:47;98136.56;;;9.85;100.00
38530;BME280;24301;54.332;48.386;2022-09-29T04:13:13;98119.03;;;9.87;100.00
38530;BME280;24301;54.332;48.386;2022-09-29T04:15:38;98128.59;;;9.89;100.00
38530;BME280;24301;54.332;48.386;2022-09-29T04:18:05;98123.44;;;9.86;100.00
38530;BME280;24301;54.332;48.386;2022-09-29T04:20:31;98129.28;;;9.96;100.00
38530;BME280;24301;54.332;48.386;2022-09-29T04:22:58;98132.03;;;9.91;100.00
38530;BME280;24301;54.332;48.386;2022-09-29T04:25:26;98134.59;;;9.93;100.00
38530;BME280;24301;54.332;48.386;2022-09-29T04:27:52;98136.25;;;9.97;100.00
38530;BME280;24301;54.332;48.386;2022-09-29T04:30:18;98142.47;;;9.95;100.00
38530;BME280;24301;54.332;48.386;2022-09-29T04:32:44;98132.88;;;9.94;100.00
38530;BME280;24301;54.332;48.386;2022-09-29T04:35:10;98129.34;;;9.93;100.00
38530;BME280;24301;54.332;48.386;2022-09-29T04:37:36;98136.16;;;10.02;100.00
38530;BME280;24301;54.332;48.386;2022-09-29T04:40:03;98145.66;;;10.06;100.00
38530;BME280;24301;54.332;48.386;2022-09-29T04:42:30;98128.16;;;10.06;100.00
38530;BME280;24301;54.332;48.386;2022-09-29T04:44:56;98111.59;;;10.04;100.00
38530;BME280;24301;54.332;48.386;2022-09-29T04:47:22;98138.59;;;10.08;100.00
38530;BME280;24301;54.332;48.386;2022-09-29T04:49:48;98137.69;;;10.11;100.00
38530;BME280;24301;54.332;48.386;2022-09-29T04:52:13;98142.03;;;10.12;100.00
38530;BME280;24301;54.332;48.386;2022-09-29T04:54:40;98126.28;;;10.12;100.00
38530;BME280;24301;54.332;48.386;2022-09-29T04:57:06;98142.09;;;10.09;100.00
38530;BME280;24301;54.332;48.386;2022-09-29T04:59:32;98143.84;;;10.10;100.00
38530;BME280;24301;54.332;48.386;2022-09-29T05:01:58;98143.94;;;10.05;100.00
38530;BME280;24301;54.332;48.386;2022-09-29T05:04:24;98135.94;;;10.10;100.00
38530;BME280;24301;54.332;48.386;2022-09-29T05:06:50;98150.81;;;10.11;100.00
38530;BME280;24301;54.332;48.386;2022-09-29T05:09:16;98135.94;;;10.11;100.00
38530;BME280;24301;54.332;48.386;2022-09-29T05:11:42;98137.69;;;10.11;100.00
38530;BME280;24301;54.332;48.386;2022-09-29T05:14:09;98154.34;;;10.08;100.00
38530;BME280;24301;54.332;48.386;2022-09-29T05:16:35;98144.81;;;10.05;100.00
38530;BME280;24301;54.332;48.386;2022-09-29T05:19:01;98148.34;;;10.04;100.00
38530;BME280;24301;54.332;48.386;2022-09-29T05:21:27;98156.97;;;10.10;100.00
38530;BME280;24301;54.332;48.386;2022-09-29T05:23:54;98156.09;;;10.09;100.00
38530;BME280;24301;54.332;48.386;2022-09-29T05:26:19;98160.66;;;10.02;100.00
38530;BME280;24301;54.332;48.386;2022-09-29T05:28:46;98152.63;;;10.07;100.00
38530;BME280;24301;54.332;48.386;2022-09-29T05:31:13;98164.00;;;10.07;100.00
38530;BME280;24301;54.332;48.386;2022-09-29T05:33:39;98156.97;;;10.08;100.00
38530;BME280;24301;54.332;48.386;2022-09-29T05:36:07;98157.03;;;10.06;100.00
38530;BME280;24301;54.332;48.386;2022-09-29T05:38:35;98157.03;;;10.06;100.00
38530;BME280;24301;54.332;48.386;2022-09-29T05:41:09;98144.81;;;10.05;100.00
38530;BME280;24301;54.332;48.386;2022-09-29T05:43:37;98147.53;;;10.01;100.00
38530;BME280;24301;54.332;48.386;2022-09-29T05:46:05;98148.38;;;10.03;100.00
38530;BME280;24301;54.332;48.386;2022-09-29T05:48:32;98152.78;;;10.02;100.00
38530;BME280;24301;54.332;48.386;2022-09-29T05:50:58;98156.22;;;10.04;100.00
38530;BME280;24301;54.332;48.386;2022-09-29T05:53:25;98164.09;;;10.04;100.00
38530;BME280;24301;54.332;48.386;2022-09-29T05:55:51;98174.59;;;10.04;100.00
38530;BME280;24301;54.332;48.386;2022-09-29T05:58:17;98153.59;;;10.04;100.00
38530;BME280;24301;54.332;48.386;2022-09-29T06:00:44;98169.25;;;10.07;100.00
38530;BME280;24301;54.332;48.386;2022-09-29T06:03:09;98169.34;;;10.04;100.00
38530;BME280;24301;54.332;48.386;2022-09-29T06:05:40;98170.25;;;10.03;100.00
38530;BME280;24301;54.332;48.386;2022-09-29T06:08:08;98171.84;;;10.09;100.00
38530;BME280;24301;54.332;48.386;2022-09-29T06:10:34;98170.09;;;10.10;100.00
38530;BME280;24301;54.332;48.386;2022-09-29T06:13:00;98172.47;;;10.19;100.00
38530;BME280;24301;54.332;48.386;2022-09-29T06:15:27;98171.66;;;10.17;100.00
38530;BME280;24301;54.332;48.386;2022-09-29T06:17:57;98164.66;;;10.17;100.00
38530;BME280;24301;54.332;48.386;2022-09-29T06:20:24;98173.38;;;10.18;100.00
38530;BME280;24301;54.332;48.386;2022-09-29T06:22:53;98169.81;;;10.20;100.00
38530;BME280;24301;54.332;48.386;2022-09-29T06:25:20;98173.25;;;10.23;100.00
38530;BME280;24301;54.332;48.386;2022-09-29T06:27:46;98185.41;;;10.27;100.00
38530;BME280;24301;54.332;48.386;2022-09-29T06:30:12;98186.16;;;10.32;100.00
38530;BME280;24301;54.332;48.386;2022-09-29T06:32:39;98184.28;;;10.37;100.00
38530;BME280;24301;54.332;48.386;2022-09-29T06:35:05;98185.09;;;10.39;100.00
38530;BME280;24301;54.332;48.386;2022-09-29T06:37:50;98186.81;;;10.42;100.00
38530;BME280;24301;54.332;48.386;2022-09-29T06:40:18;98178.19;;;10.35;100.00
38530;BME280;24301;54.332;48.386;2022-09-29T06:42:48;98199.81;;;10.46;100.00
38530;BME280;24301;54.332;48.386;2022-09-29T06:45:15;98189.03;;;10.57;100.00
38530;BME280;24301;54.332;48.386;2022-09-29T06:47:41;98192.47;;;10.59;100.00
38530;BME280;24301;54.332;48.386;2022-09-29T06:50:07;98195.09;;;10.59;100.00
38530;BME280;24301;54.332;48.386;2022-09-29T06:52:34;98203.00;;;10.59;100.00
38530;BME280;24301;54.332;48.386;2022-09-29T06:55:00;98197.66;;;10.62;100.00
38530;BME280;24301;54.332;48.386;2022-09-29T06:57:26;98206.88;;;10.77;100.00
38530;BME280;24301;54.332;48.386;2022-09-29T06:59:52;98199.09;;;10.73;100.00
38530;BME280;24301;54.332;48.386;2022-09-29T07:02:17;98203.34;;;10.78;100.00
38530;BME280;24301;54.332;48.386;2022-09-29T07:04:45;98204.31;;;10.76;100.00
38530;BME280;24301;54.332;48.386;2022-09-29T07:07:14;98207.97;;;10.69;100.00
38530;BME280;24301;54.332;48.386;2022-09-29T07:09:41;98201.09;;;10.64;100.00
38530;BME280;24301;54.332;48.386;2022-09-29T07:12:07;98206.19;;;10.71;100.00
38530;BME280;24301;54.332;48.386;2022-09-29T07:14:33;98213.84;;;10.78;100.00
38530;BME280;24301;54.332;48.386;2022-09-29T07:16:59;98206.69;;;10.84;100.00
38530;BME280;24301;54.332;48.386;2022-09-29T07:19:25;98212.84;;;10.84;100.00
38530;BME280;24301;54.332;48.386;2022-09-29T07:21:51;98212.75;;;10.87;100.00
38530;BME280;24301;54.332;48.386;2022-09-29T07:24:17;98209.31;;;10.85;100.00
38530;BME280;24301;54.332;48.386;2022-09-29T07:26:43;98218.00;;;10.87;100.00
38530;BME280;24301;54.332;48.386;2022-09-29T07:29:09;98220.59;;;10.89;100.00
38530;BME280;24301;54.332;48.386;2022-09-29T07:31:35;98224.00;;;10.92;100.00
38530;BME280;24301;54.332;48.386;2022-09-29T07:34:01;98222.94;;;11.00;100.00
38530;BME280;24301;54.332;48.386;2022-09-29T07:36:27;98223.59;;;11.06;100.00
38530;BME280;24301;54.332;48.386;2022-09-29T07:38:53;98212.16;;;11.09;100.00
38530;BME280;24301;54.332;48.386;2022-09-29T07:41:20;98213.66;;;11.18;100.00
38530;BME280;24301;54.332;48.386;2022-09-29T07:43:46;98224.00;;;11.23;100.00
38530;BME280;24301;54.332;48.386;2022-09-29T07:46:12;98222.94;;;11.30;100.00
38530;BME280;24301;54.332;48.386;2022-09-29T07:48:39;98224.78;;;11.28;100.00
38530;BME280;24301;54.332;48.386;2022-09-29T07:51:11;98227.13;;;11.37;100.00
38530;BME280;24301;54.332;48.386;2022-09-29T07:53:38;98223.44;;;11.43;100.00
38530;BME280;24301;54.332;48.386;2022-09-29T07:56:09;98231.97;;;11.51;100.00
38530;BME280;24301;54.332;48.386;2022-09-29T07:58:36;98236.28;;;11.54;100.00
38530;BME280;24301;54.332;48.386;2022-09-29T08:01:04;98243.41;;;11.50;100.00
38530;BME280;24301;54.332;48.386;2022-09-29T08:03:31;98245.91;;;11.55;100.00
38530;BME280;24301;54.332;48.386;2022-09-29T08:05:57;98241.91;;;11.41;100.00
38530;BME280;24301;54.332;48.386;2022-09-29T08:08:24;98248.28;;;11.32;100.00
38530;BME280;24301;54.332;48.386;2022-09-29T08:10:50;98257.06;;;11.33;100.00
38530;BME280;24301;54.332;48.386;2022-09-29T08:13:17;98256.16;;;11.34;100.00
38530;BME280;24301;54.332;48.386;2022-09-29T08:15:43;98246.53;;;11.33;100.00
38530;BME280;24301;54.332;48.386;2022-09-29T08:18:09;98256.69;;;11.45;100.00
38530;BME280;24301;54.332;48.386;2022-09-29T08:20:35;98247.81;;;11.49;100.00
38530;BME280;24301;54.332;48.386;2022-09-29T08:23:02;98257.44;;;11.50;100.00
38530;BME280;24301;54.332;48.386;2022-09-29T08:25:28;98253.63;;;11.59;100.00
38530;BME280;24301;54.332;48.386;2022-09-29T08:27:54;98252.41;;;11.71;100.00
38530;BME280;24301;54.332;48.386;2022-09-29T08:30:20;98251.13;;;11.85;100.00
38530;BME280;24301;54.332;48.386;2022-09-29T08:32:52;98260.56;;;11.92;100.00
38530;BME280;24301;54.332;48.386;2022-09-29T08:35:19;98261.44;;;11.92;100.00
38530;BME280;24301;54.332;48.386;2022-09-29T08:37:45;98264.41;;;11.82;100.00
38530;BME280;24301;54.332;48.386;2022-09-29T08:40:11;98273.38;;;11.74;100.00
38530;BME280;24301;54.332;48.386;2022-09-29T08:45:14;98267.06;;;11.80;100.00
38530;BME280;24301;54.332;48.386;2022-09-29T08:47:48;98267.22;;;11.75;100.00
38530;BME280;24301;54.332;48.386;2022-09-29T08:50:18;98270.59;;;11.79;100.00
38530;BME280;24301;54.332;48.386;2022-09-29T08:52:52;98274.16;;;11.78;100.00
38530;BME280;24301;54.332;48.386;2022-09-29T08:55:38;98286.50;;;11.76;100.00
38530;BME280;24301;54.332;48.386;2022-09-29T08:58:11;98282.97;;;11.77;100.00
38530;BME280;24301;54.332;48.386;2022-09-29T09:01:29;98285.56;;;11.78;100.00
38530;BME280;24301;54.332;48.386;2022-09-29T09:03:47;98273.31;;;11.77;100.00
38530;BME280;24301;54.332;48.386;2022-09-29T09:09:20;98275.16;;;12.04;100.00
38530;BME280;24301;54.332;48.386;2022-09-29T09:23:00;98290.84;;;12.07;100.00
38530;BME280;24301;54.332;48.386;2022-09-29T09:25:37;98289.22;;;12.03;100.00
38530;BME280;24301;54.332;48.386;2022-09-29T09:28:20;98290.72;;;12.12;100.00
38530;BME280;24301;54.332;48.386;2022-09-29T09:30:56;98306.28;;;12.19;100.00
38530;BME280;24301;54.332;48.386;2022-09-29T09:33:38;98300.22;;;12.16;100.00
38530;BME280;24301;54.332;48.386;2022-09-29T09:36:17;98311.44;;;12.23;100.00
38530;BME280;24301;54.332;48.386;2022-09-29T09:39:02;98307.03;;;12.23;100.00
38530;BME280;24301;54.332;48.386;2022-09-29T09:41:30;98310.56;;;12.22;100.00
38530;BME280;24301;54.332;48.386;2022-09-29T09:44:35;98313.94;;;12.27;100.00
38530;BME280;24301;54.332;48.386;2022-09-29T09:47:32;98313.03;;;12.28;100.00
38530;BME280;24301;54.332;48.386;2022-09-29T09:50:00;98320.38;;;12.18;100.00
38530;BME280;24301;54.332;48.386;2022-09-29T09:52:32;98321.50;;;12.10;100.00
38530;BME280;24301;54.332;48.386;2022-09-29T09:55:05;98322.50;;;12.05;100.00
38530;BME280;24301;54.332;48.386;2022-09-29T10:00:32;98325.00;;;12.10;100.00
38530;BME280;24301;54.332;48.386;2022-09-29T10:03:04;98328.69;;;12.04;100.00
38530;BME280;24301;54.332;48.386;2022-09-29T10:05:39;98322.41;;;12.09;100.00
38530;BME280;24301;54.332;48.386;2022-09-29T10:08:10;98327.72;;;12.07;100.00
38530;BME280;24301;54.332;48.386;2022-09-29T10:10:39;98324.75;;;12.18;100.00
38530;BME280;24301;54.332;48.386;2022-09-29T10:13:09;98324.19;;;12.36;100.00
38530;BME280;24301;54.332;48.386;2022-09-29T10:16:13;98325.31;;;12.56;100.00
38530;BME280;24301;54.332;48.386;2022-09-29T10:18:43;98325.88;;;12.66;100.00
38530;BME280;24301;54.332;48.386;2022-09-29T10:21:37;98329.66;;;12.84;100.00
38530;BME280;24301;54.332;48.386;2022-09-29T10:24:04;98329.59;;;12.86;100.00
38530;BME280;24301;54.332;48.386;2022-09-29T10:26:42;98328.28;;;12.72;100.00
38530;BME280;24301;54.332;48.386;2022-09-29T10:29:22;98332.31;;;12.83;100.00
38530;BME280;24301;54.332;48.386;2022-09-29T10:32:02;98333.91;;;12.88;100.00
38530;BME280;24301;54.332;48.386;2022-09-29T10:34:30;98333.09;;;12.86;100.00
38530;BME280;24301;54.332;48.386;2022-09-29T10:37:05;98335.94;;;12.80;100.00
38530;BME280;24301;54.332;48.386;2022-09-29T10:39:44;98348.22;;;12.81;100.00
38530;BME280;24301;54.332;48.386;2022-09-29T10:42:24;98351.94;;;12.74;100.00
38530;BME280;24301;54.332;48.386;2022-09-29T10:44:53;98362.47;;;12.75;100.00
38530;BME280;24301;54.332;48.386;2022-09-29T10:47:21;98364.84;;;12.83;100.00
38530;BME280;24301;54.332;48.386;2022-09-29T10:50:07;98363.88;;;12.86;100.00
38530;BME280;24301;54.332;48.386;2022-09-29T10:52:37;98362.69;;;12.94;100.00
38530;BME280;24301;54.332;48.386;2022-09-29T10:55:25;98370.13;;;13.08;100.00
38530;BME280;24301;54.332;48.386;2022-09-29T10:57:54;98370.16;;;13.34;100.00
38530;BME280;24301;54.332;48.386;2022-09-29T11:00:34;98379.19;;;13.54;100.00
38530;BME280;24301;54.332;48.386;2022-09-29T11:03:16;98371.88;;;13.60;100.00
38530;BME280;24301;54.332;48.386;2022-09-29T11:05:58;98378.78;;;13.64;100.00
38530;BME280;24301;54.332;48.386;2022-09-29T11:08:24;98376.97;;;13.67;100.00
38530;BME280;24301;54.332;48.386;2022-09-29T11:11:20;98377.00;;;13.65;100.00
38530;BME280;24301;54.332;48.386;2022-09-29T11:13:47;98391.59;;;13.52;100.00
38530;BME280;24301;54.332;48.386;2022-09-29T11:16:35;98392.69;;;13.44;100.00
38530;BME280;24301;54.332;48.386;2022-09-29T11:27:13;98392.81;;;13.14;100.00
38530;BME280;24301;54.332;48.386;2022-09-29T11:32:44;98398.91;;;13.16;100.00
38530;BME280;24301;54.332;48.386;2022-09-29T11:35:50;98401.69;;;13.12;100.00
38530;BME280;24301;54.332;48.386;2022-09-29T11:52:33;98404.47;;;13.34;100.00
38530;BME280;24301;54.332;48.386;2022-09-29T12:09:39;98424.47;;;13.14;100.00
38530;BME280;24301;54.332;48.386;2022-09-29T12:12:43;98435.72;;;13.19;100.00
38530;BME280;24301;54.332;48.386;2022-09-29T12:17:52;98428.00;;;13.15;100.00
38530;BME280;24301;54.332;48.386;2022-09-29T12:20:32;98442.94;;;13.14;100.00
38530;BME280;24301;54.332;48.386;2022-09-29T12:23:02;98443.19;;;13.06;100.00
38530;BME280;24301;54.332;48.386;2022-09-29T12:25:33;98442.50;;;13.01;100.00
38530;BME280;24301;54.332;48.386;2022-09-29T12:28:16;98446.72;;;13.07;100.00
38530;BME280;24301;54.332;48.386;2022-09-29T12:30:49;98451.06;;;13.08;100.00
38530;BME280;24301;54.332;48.386;2022-09-29T12:33:37;98460.81;;;13.06;100.00
38530;BME280;24301;54.332;48.386;2022-09-29T12:50:28;98476.69;;;13.04;100.00
38530;BME280;24301;54.332;48.386;2022-09-29T12:56:10;98477.50;;;13.06;100.00
38530;BME280;24301;54.332;48.386;2022-09-29T12:58:43;98488.81;;;13.10;100.00
38530;BME280;24301;54.332;48.386;2022-09-29T13:01:22;98486.88;;;13.15;100.00
38530;BME280;24301;54.332;48.386;2022-09-29T13:10:02;98497.53;;;13.12;100.00
38530;BME280;24301;54.332;48.386;2022-09-29T13:12:46;98501.00;;;13.14;100.00
38530;BME280;24301;54.332;48.386;2022-09-29T13:15:26;98492.16;;;13.15;100.00
38530;BME280;24301;54.332;48.386;2022-09-29T13:29:19;98503.31;;;13.23;100.00
38530;BME280;24301;54.332;48.386;2022-09-29T13:31:47;98494.81;;;13.15;100.00
38530;BME280;24301;54.332;48.386;2022-09-29T13:37:04;98516.13;;;13.09;100.00
38530;BME280;24301;54.332;48.386;2022-09-29T13:39:32;98510.97;;;13.04;100.00
38530;BME280;24301;54.332;48.386;2022-09-29T13:42:25;98509.16;;;13.06;100.00
38530;BME280;24301;54.332;48.386;2022-09-29T13:47:51;98514.50;;;13.05;100.00
38530;BME280;24301;54.332;48.386;2022-09-29T13:50:43;98518.78;;;13.07;100.00
38530;BME280;24301;54.332;48.386;2022-09-29T13:53:33;98521.44;;;13.07;100.00
38530;BME280;24301;54.332;48.386;2022-09-29T13:58:31;98520.59;;;13.07;100.00
38530;BME280;24301;54.332;48.386;2022-09-29T14:01:04;98529.31;;;13.09;100.00
38530;BME280;24301;54.332;48.386;2022-09-29T14:03:33;98522.25;;;13.10;100.00
38530;BME280;24301;54.332;48.386;2022-09-29T14:06:23;98530.94;;;13.13;100.00
38530;BME280;24301;54.332;48.386;2022-09-29T14:14:23;98543.41;;;13.08;100.00
38530;BME280;24301;54.332;48.386;2022-09-29T14:33:07;98576.66;;;12.84;100.00
38530;BME280;24301;54.332;48.386;2022-09-29T14:35:37;98578.44;;;12.83;100.00
38530;BME280;24301;54.332;48.386;2022-09-29T14:38:19;98584.53;;;12.85;100.00
38530;BME280;24301;54.332;48.386;2022-09-29T14:41:19;98583.66;;;12.85;100.00
38530;BME280;24301;54.332;48.386;2022-09-29T14:43:55;98587.19;;;12.85;100.00
38530;BME280;24301;54.332;48.386;2022-09-29T14:58:14;98597.16;;;12.74;100.00
38530;BME280;24301;54.332;48.386;2022-09-29T15:03:17;98601.38;;;12.81;100.00
38530;BME280;24301;54.332;48.386;2022-09-29T15:05:45;98605.72;;;12.82;100.00
38530;BME280;24301;54.332;48.386;2022-09-29T15:08:30;98616.28;;;12.82;100.00
38530;BME280;24301;54.332;48.386;2022-09-29T15:10:56;98614.69;;;12.76;100.00
38530;BME280;24301;54.332;48.386;2022-09-29T15:26:32;98639.03;;;12.55;100.00
38530;BME280;24301;54.332;48.386;2022-09-29T15:28:59;98636.34;;;12.56;100.00
38530;BME280;24301;54.332;48.386;2022-09-29T15:31:31;98631.31;;;12.47;100.00
38530;BME280;24301;54.332;48.386;2022-09-29T15:33:59;98650.53;;;12.52;100.00
38530;BME280;24301;54.332;48.386;2022-09-29T15:36:32;98655.84;;;12.49;100.00
38530;BME280;24301;54.332;48.386;2022-09-29T15:39:56;98656.81;;;12.46;100.00
38530;BME280;24301;54.332;48.386;2022-09-29T15:42:10;98661.28;;;12.44;100.00
38530;BME280;24301;54.332;48.386;2022-09-29T15:44:38;98657.84;;;12.41;100.00
38530;BME280;24301;54.332;48.386;2022-09-29T15:47:21;98663.94;;;12.43;100.00
38530;BME280;24301;54.332;48.386;2022-09-29T15:49:51;98660.59;;;12.36;100.00
38530;BME280;24301;54.332;48.386;2022-09-29T15:52:18;98671.94;;;12.40;100.00
38530;BME280;24301;54.332;48.386;2022-09-29T15:54:52;98677.19;;;12.41;100.00
38530;BME280;24301;54.332;48.386;2022-09-29T16:05:18;98690.97;;;12.51;100.00
38530;BME280;24301;54.332;48.386;2022-09-29T16:08:01;98687.56;;;12.46;100.00
38530;BME280;24301;54.332;48.386;2022-09-29T16:10:33;98705.94;;;12.49;100.00
38530;BME280;24301;54.332;48.386;2022-09-29T16:13:07;98694.56;;;12.47;100.00
38530;BME280;24301;54.332;48.386;2022-09-29T16:15:45;98706.00;;;12.47;100.00